Terminal Aerodrome Forecast
Issued by NWS

Home | Current Version | Previous Version | Text Only | Print | Product List | Glossary On
Versions: 1 2 3 4 5 6 7 8 9 10 11 12 13 14 15 16 17 18 19
000
FTUS43 KLSX 122320
TAFCPS
TAF
KCPS 122320Z 1300/1324 29005KT P6SM FEW250
     FM130400 22004KT P6SM FEW250
     FM131300 19008KT P6SM FEW090 WS012/24035KT
     FM131500 20013G23KT P6SM FEW100 WS012/23040KT
     FM131700 25015G28KT P6SM SCT250
     FM132100 29015G27KT P6SM BKN110=

USA.gov is the U.S. government's official web portal to all federal, state and local government web resources and services.